createdAt,value
2022-10-13T00:02:21.642Z,88.90
2022-10-13T00:04:48.127Z,89.00
2022-10-13T00:07:14.521Z,88.90
2022-10-13T00:09:40.912Z,90.10
2022-10-13T00:12:07.323Z,89.10
2022-10-13T00:14:33.715Z,89.90
2022-10-13T00:17:00.109Z,90.20
2022-10-13T00:19:26.500Z,88.70
2022-10-13T00:21:52.911Z,90.00
2022-10-13T00:24:19.302Z,89.70
2022-10-13T00:26:45.709Z,90.20
2022-10-13T00:29:12.098Z,90.10
2022-10-13T00:31:38.541Z,90.00
2022-10-13T00:34:04.968Z,88.90
2022-10-13T00:36:31.370Z,89.10
2022-10-13T00:38:57.755Z,88.90
2022-10-13T00:41:24.162Z,90.20
2022-10-13T00:43:50.570Z,90.00
2022-10-13T00:46:17.011Z,88.90
2022-10-13T00:48:43.417Z,88.90
2022-10-13T00:51:09.831Z,90.00
2022-10-13T00:53:36.232Z,89.30
2022-10-13T00:56:02.633Z,88.90
2022-10-13T00:58:29.045Z,90.10
2022-10-13T01:00:55.506Z,88.90
2022-10-13T01:03:21.949Z,88.90
2022-10-13T01:05:48.358Z,88.90
2022-10-13T01:08:14.782Z,88.90
2022-10-13T01:10:41.174Z,88.90
2022-10-13T01:13:07.584Z,88.90
2022-10-13T01:15:33.988Z,88.90
2022-10-13T01:18:00.389Z,89.10
2022-10-13T01:20:26.807Z,89.00
2022-10-13T01:22:53.232Z,89.00
2022-10-13T01:25:19.649Z,89.00
2022-10-13T01:27:46.069Z,89.00
2022-10-13T01:30:12.483Z,89.00
2022-10-13T01:32:38.897Z,89.00
2022-10-13T01:35:05.295Z,89.00
2022-10-13T01:37:31.735Z,89.00
2022-10-13T01:39:58.296Z,89.00
2022-10-13T01:42:24.753Z,89.00
2022-10-13T01:44:51.156Z,89.00
2022-10-13T01:47:17.565Z,89.00
2022-10-13T01:49:43.959Z,89.00
2022-10-13T01:52:10.358Z,89.00
2022-10-13T01:54:36.758Z,89.00
2022-10-13T01:57:03.195Z,90.20
2022-10-13T01:59:29.588Z,89.00
2022-10-13T02:01:56.202Z,89.10
2022-10-13T02:04:22.593Z,89.00
2022-10-13T02:06:49.002Z,89.40
2022-10-13T02:09:16.562Z,89.00
2022-10-13T02:11:42.975Z,89.00
2022-10-13T02:14:09.369Z,89.10
2022-10-13T02:16:35.792Z,89.00
2022-10-13T02:19:02.203Z,89.00
2022-10-13T02:21:28.666Z,89.00
2022-10-13T02:23:55.071Z,89.00
2022-10-13T02:26:21.491Z,89.10
2022-10-13T02:28:47.990Z,89.00
2022-10-13T02:31:14.440Z,89.00
2022-10-13T02:33:40.840Z,89.30
2022-10-13T02:36:07.244Z,90.10
2022-10-13T02:38:33.667Z,89.00
2022-10-13T02:41:00.091Z,89.00
2022-10-13T02:43:26.500Z,90.00
2022-10-13T02:45:52.899Z,90.20
2022-10-13T02:48:19.311Z,89.20
2022-10-13T02:50:45.724Z,89.00
2022-10-13T02:53:12.127Z,89.00
2022-10-13T02:55:38.523Z,89.00
2022-10-13T02:58:04.956Z,89.00
2022-10-13T03:00:31.447Z,89.00
2022-10-13T03:02:58.093Z,89.00
2022-10-13T03:05:24.494Z,89.00
2022-10-13T03:07:50.901Z,89.00
2022-10-13T03:10:17.300Z,89.00
2022-10-13T03:12:43.892Z,89.00
2022-10-13T03:15:10.290Z,89.00
2022-10-13T03:17:36.707Z,89.00
2022-10-13T03:20:03.153Z,89.30
2022-10-13T03:22:29.550Z,90.10
2022-10-13T03:24:55.935Z,89.00
2022-10-13T03:27:22.560Z,90.20
2022-10-13T03:29:48.956Z,90.00
2022-10-13T03:32:15.353Z,89.20
2022-10-13T03:34:41.745Z,89.90
2022-10-13T03:37:08.147Z,89.00
2022-10-13T03:39:34.545Z,90.00
2022-10-13T03:42:00.959Z,89.00
2022-10-13T03:44:27.340Z,89.20
2022-10-13T03:46:53.747Z,90.40
2022-10-13T03:49:20.146Z,89.00
2022-10-13T03:51:46.574Z,89.00
2022-10-13T03:54:12.965Z,89.00
2022-10-13T03:56:39.390Z,88.90
2022-10-13T03:59:05.807Z,88.90
2022-10-13T04:01:32.268Z,88.90
2022-10-13T04:03:58.735Z,90.00
2022-10-13T04:08:52.033Z,88.90
2022-10-13T04:11:18.458Z,88.90
2022-10-13T04:13:44.874Z,88.90
2022-10-13T04:16:11.282Z,88.90
2022-10-13T04:18:41.120Z,88.90
2022-10-13T04:21:10.785Z,88.90
2022-10-13T04:23:37.183Z,89.30
2022-10-13T04:26:03.572Z,90.10
2022-10-13T04:28:29.992Z,90.20
2022-10-13T04:30:56.402Z,89.90
2022-10-13T04:33:22.863Z,88.80
2022-10-13T04:35:49.295Z,88.80
2022-10-13T04:38:18.041Z,88.90
2022-10-13T04:40:44.509Z,88.90
2022-10-13T04:43:10.935Z,88.90
2022-10-13T04:45:37.350Z,88.90
2022-10-13T04:48:03.760Z,90.10
2022-10-13T04:50:30.152Z,89.00
2022-10-13T04:52:56.561Z,89.10
2022-10-13T04:55:22.956Z,88.90
2022-10-13T04:57:49.357Z,88.90
2022-10-13T05:00:15.745Z,88.90
2022-10-13T05:02:42.218Z,89.00
2022-10-13T05:05:08.632Z,89.00
2022-10-13T05:07:35.052Z,88.90
2022-10-13T05:10:01.450Z,88.90
2022-10-13T05:12:27.897Z,88.90
2022-10-13T05:14:54.287Z,89.00
2022-10-13T05:17:20.690Z,88.90
2022-10-13T05:19:47.120Z,89.00
2022-10-13T05:22:13.533Z,89.00
2022-10-13T05:24:39.938Z,88.90
2022-10-13T05:27:06.384Z,89.00
2022-10-13T05:29:32.787Z,90.20
2022-10-13T05:31:59.210Z,90.50
2022-10-13T05:34:25.614Z,88.90
2022-10-13T05:36:52.048Z,89.00
2022-10-13T05:39:18.441Z,88.90
2022-10-13T05:41:44.839Z,88.90
2022-10-13T05:44:11.264Z,88.90
2022-10-13T05:46:37.786Z,88.90
2022-10-13T05:49:04.207Z,89.00
2022-10-13T05:51:30.648Z,89.00
2022-10-13T05:53:57.943Z,89.00
2022-10-13T05:56:24.407Z,89.00
2022-10-13T05:58:50.790Z,89.30
2022-10-13T06:01:17.183Z,90.40
2022-10-13T06:03:43.584Z,89.00
2022-10-13T06:06:10.002Z,89.00
2022-10-13T06:08:36.615Z,88.90
2022-10-13T06:11:03.032Z,89.00
2022-10-13T06:13:29.434Z,89.00
2022-10-13T06:15:55.811Z,89.00
2022-10-13T06:18:22.221Z,90.00
2022-10-13T06:20:48.646Z,90.00
2022-10-13T06:23:15.060Z,89.00
2022-10-13T06:25:41.444Z,89.00
2022-10-13T06:28:07.841Z,88.90
2022-10-13T06:30:34.235Z,89.00
2022-10-13T06:33:00.640Z,89.00
2022-10-13T06:35:27.032Z,89.10
2022-10-13T06:37:53.422Z,88.90
2022-10-13T06:40:19.841Z,88.90
2022-10-13T06:42:46.256Z,90.00
2022-10-13T06:45:12.642Z,89.30
2022-10-13T06:47:39.062Z,89.10
2022-10-13T06:50:05.456Z,89.00
2022-10-13T06:52:31.863Z,90.80
2022-10-13T06:54:58.295Z,89.00
2022-10-13T06:57:24.688Z,89.00
2022-10-13T06:59:51.057Z,89.90
2022-10-13T07:02:17.741Z,89.00
2022-10-13T07:04:44.258Z,89.30
2022-10-13T07:07:10.666Z,89.00
2022-10-13T07:09:37.069Z,90.10
2022-10-13T07:12:03.474Z,90.00
2022-10-13T07:14:30.045Z,90.10
2022-10-13T07:16:56.431Z,89.00
2022-10-13T07:19:22.839Z,89.00
2022-10-13T07:21:49.250Z,89.00
2022-10-13T07:24:15.659Z,89.00
2022-10-13T07:26:42.060Z,89.00
2022-10-13T07:29:08.472Z,89.00
2022-10-13T07:31:34.861Z,89.00
2022-10-13T07:34:01.246Z,89.00
2022-10-13T07:36:27.672Z,89.00
2022-10-13T07:38:54.083Z,90.20
2022-10-13T07:41:20.596Z,89.10
2022-10-13T07:43:46.997Z,89.10
2022-10-13T07:46:13.379Z,89.00
2022-10-13T07:48:39.765Z,89.30
2022-10-13T07:51:06.165Z,89.30
2022-10-13T07:53:32.584Z,90.20
2022-10-13T07:55:58.994Z,89.90
2022-10-13T07:58:25.487Z,89.10
2022-10-13T08:00:51.903Z,89.10
2022-10-13T08:03:18.315Z,90.10
2022-10-13T08:05:44.711Z,89.60
2022-10-13T08:08:11.131Z,89.20
2022-10-13T08:10:37.546Z,89.20
2022-10-13T08:13:03.953Z,89.10
2022-10-13T08:15:30.337Z,89.00
2022-10-13T08:17:56.739Z,89.10
2022-10-13T08:20:23.427Z,89.20
2022-10-13T08:22:51.076Z,89.20
2022-10-13T08:25:17.483Z,90.20
2022-10-13T08:27:50.959Z,89.50
2022-10-13T08:30:18.102Z,90.10
2022-10-13T08:32:44.580Z,90.00
2022-10-13T08:35:10.957Z,90.10
2022-10-13T08:37:37.378Z,90.00
2022-10-13T08:40:03.760Z,90.00
2022-10-13T08:42:30.216Z,89.10
2022-10-13T08:45:22.266Z,89.10
2022-10-13T08:47:43.086Z,89.20
2022-10-13T08:50:09.492Z,89.20
2022-10-13T08:52:35.901Z,89.20
2022-10-13T08:55:02.317Z,89.20
2022-10-13T08:57:28.740Z,89.20
2022-10-13T08:59:55.177Z,89.30
2022-10-13T09:02:21.628Z,89.20
2022-10-13T09:04:48.043Z,88.40
2022-10-13T09:07:14.562Z,87.30
2022-10-13T09:09:40.968Z,88.30
2022-10-13T09:12:10.386Z,89.00
2022-10-13T09:14:36.831Z,89.10
2022-10-13T09:17:03.272Z,89.10
2022-10-13T09:19:29.703Z,89.20
2022-10-13T09:21:56.100Z,89.20
2022-10-13T09:24:22.521Z,89.20
2022-10-13T09:26:48.933Z,89.20
2022-10-13T09:29:15.342Z,89.30
2022-10-13T09:31:41.764Z,89.30
2022-10-13T09:34:08.185Z,89.30
2022-10-13T09:36:34.580Z,89.30
2022-10-13T09:39:00.983Z,89.20
2022-10-13T09:41:27.445Z,89.30
2022-10-13T09:43:53.845Z,89.30
2022-10-13T09:46:20.268Z,89.30
2022-10-13T09:48:46.656Z,89.20
2022-10-13T09:51:13.064Z,90.30
2022-10-13T09:53:39.461Z,89.30
2022-10-13T09:56:05.867Z,89.30
2022-10-13T09:58:32.364Z,90.20
2022-10-13T10:00:58.860Z,89.30
2022-10-13T10:03:25.262Z,89.30
2022-10-13T10:05:51.688Z,89.30
2022-10-13T10:08:18.080Z,89.30
2022-10-13T10:10:44.492Z,89.30
2022-10-13T10:13:10.903Z,89.40
2022-10-13T10:15:37.328Z,89.30
2022-10-13T10:18:03.731Z,89.30
2022-10-13T10:20:30.162Z,89.30
2022-10-13T10:22:56.575Z,89.30
2022-10-13T10:25:22.991Z,89.30
2022-10-13T10:27:49.410Z,89.30
2022-10-13T10:30:16.014Z,89.30
2022-10-13T10:32:42.417Z,89.30
2022-10-13T10:35:08.840Z,89.30
2022-10-13T10:37:35.245Z,89.40
2022-10-13T10:40:01.737Z,89.40
2022-10-13T10:42:28.128Z,89.40
2022-10-13T10:44:54.556Z,89.40
2022-10-13T10:47:23.296Z,89.30
2022-10-13T10:49:50.059Z,89.40
2022-10-13T10:52:16.458Z,89.40
2022-10-13T10:54:46.713Z,89.50
2022-10-13T10:57:16.476Z,89.40
2022-10-13T10:59:43.071Z,89.40
2022-10-13T11:02:09.488Z,89.40
2022-10-13T11:04:35.897Z,89.50
2022-10-13T11:07:02.296Z,89.50
2022-10-13T11:09:28.710Z,89.40
2022-10-13T11:11:56.167Z,89.40
2022-10-13T11:14:22.587Z,89.40
2022-10-13T11:16:48.992Z,89.40
2022-10-13T11:19:15.406Z,89.40
2022-10-13T11:21:41.790Z,89.50
2022-10-13T11:24:08.215Z,89.50
2022-10-13T11:26:34.692Z,88.60
2022-10-13T11:29:01.130Z,88.80
2022-10-13T11:31:29.774Z,89.20
2022-10-13T11:33:58.590Z,89.20
2022-10-13T11:36:25.037Z,89.30
2022-10-13T11:38:51.453Z,90.30
2022-10-13T11:41:17.864Z,89.30
2022-10-13T11:43:44.263Z,89.30
2022-10-13T11:46:10.882Z,89.30
2022-10-13T11:48:37.309Z,89.40
2022-10-13T11:51:03.800Z,89.30
2022-10-13T11:53:30.214Z,89.40
2022-10-13T11:55:56.639Z,89.40
2022-10-13T11:58:23.033Z,89.40
2022-10-13T12:00:49.448Z,89.40
2022-10-13T12:03:15.871Z,89.40
2022-10-13T12:05:42.316Z,89.40
2022-10-13T12:08:08.737Z,89.50
2022-10-13T12:10:35.155Z,89.50
2022-10-13T12:13:01.584Z,89.50
2022-10-13T12:15:28.020Z,89.50
2022-10-13T12:17:54.506Z,89.50
2022-10-13T12:20:20.918Z,89.40
2022-10-13T12:22:50.418Z,89.40
2022-10-13T12:25:16.947Z,89.40
2022-10-13T12:27:43.351Z,89.50
2022-10-13T12:30:09.848Z,89.50
2022-10-13T12:32:36.291Z,89.50
2022-10-13T12:35:02.719Z,89.40
2022-10-13T12:37:29.146Z,89.50
2022-10-13T12:39:55.589Z,89.50
2022-10-13T12:42:22.040Z,89.60
2022-10-13T12:44:48.450Z,89.50
2022-10-13T12:47:14.859Z,89.60
2022-10-13T12:49:41.279Z,89.50
2022-10-13T12:52:07.737Z,89.50
2022-10-13T12:54:34.172Z,89.50
2022-10-13T12:57:00.639Z,89.50
2022-10-13T12:59:27.254Z,89.50
2022-10-13T13:01:53.647Z,89.60
2022-10-13T13:04:20.079Z,89.60
2022-10-13T13:06:46.515Z,89.60
2022-10-13T13:09:12.955Z,89.70
2022-10-13T13:11:39.369Z,89.60
2022-10-13T13:14:05.777Z,89.60
2022-10-13T13:16:32.243Z,89.60
2022-10-13T13:18:58.667Z,89.70
2022-10-13T13:21:25.142Z,89.70
2022-10-13T13:23:53.979Z,89.70
2022-10-13T13:26:20.709Z,89.70
2022-10-13T13:28:47.207Z,89.70
2022-10-13T13:31:13.645Z,89.70
2022-10-13T13:33:40.088Z,89.90
2022-10-13T13:36:06.500Z,89.80
2022-10-13T13:38:32.924Z,89.70
2022-10-13T13:41:03.081Z,89.70
2022-10-13T13:43:30.725Z,90.30
2022-10-13T13:45:57.164Z,90.20
2022-10-13T13:48:23.611Z,90.30
2022-10-13T13:50:50.008Z,90.60
2022-10-13T13:53:16.428Z,89.80
2022-10-13T13:55:42.861Z,89.90
2022-10-13T13:58:09.306Z,89.70
2022-10-13T14:00:35.815Z,89.80
2022-10-13T14:03:02.244Z,89.80
2022-10-13T14:05:28.728Z,89.70
2022-10-13T14:07:55.211Z,89.70
2022-10-13T14:10:21.626Z,89.70
2022-10-13T14:12:48.057Z,89.70
2022-10-13T14:15:14.500Z,89.80
2022-10-13T14:17:40.920Z,89.80
2022-10-13T14:20:07.363Z,89.80
2022-10-13T14:22:33.767Z,89.80
2022-10-13T14:25:00.192Z,89.80
2022-10-13T14:27:26.783Z,89.90
2022-10-13T14:29:53.201Z,89.80
2022-10-13T14:32:19.832Z,89.80
2022-10-13T14:34:46.615Z,89.80
2022-10-13T14:37:13.021Z,90.40
2022-10-13T14:39:39.625Z,89.80
2022-10-13T14:42:06.034Z,90.40
2022-10-13T14:44:32.449Z,89.80
2022-10-13T14:46:58.936Z,89.90
2022-10-13T14:49:25.360Z,89.90
2022-10-13T14:51:51.777Z,90.60
2022-10-13T14:54:18.236Z,89.90
2022-10-13T14:56:44.805Z,90.00
2022-10-13T14:59:11.218Z,89.90
2022-10-13T15:01:37.920Z,89.90
2022-10-13T15:04:04.399Z,90.60
2022-10-13T15:06:30.791Z,90.50
2022-10-13T15:08:57.288Z,90.60
2022-10-13T15:11:23.719Z,90.00
2022-10-13T15:13:50.231Z,90.40
2022-10-13T15:16:16.663Z,90.00
2022-10-13T15:18:43.080Z,90.00
2022-10-13T15:21:09.492Z,90.00
2022-10-13T15:23:35.909Z,90.00
2022-10-13T15:26:02.439Z,90.00
2022-10-13T15:28:28.881Z,90.00
2022-10-13T15:30:55.400Z,90.00
2022-10-13T15:33:21.894Z,90.00
2022-10-13T15:35:48.643Z,90.00
2022-10-13T15:38:15.100Z,90.00
2022-10-13T15:40:41.515Z,90.00
2022-10-13T15:43:07.929Z,90.00
2022-10-13T15:45:34.467Z,90.00
2022-10-13T15:48:00.880Z,90.00
2022-10-13T15:50:27.288Z,90.00
2022-10-13T15:52:53.739Z,90.00
2022-10-13T15:55:20.221Z,90.00
2022-10-13T15:57:46.623Z,90.00
2022-10-13T16:00:13.181Z,90.00
2022-10-13T16:02:39.669Z,90.00
2022-10-13T16:05:06.176Z,90.00
2022-10-13T16:07:32.581Z,90.00
2022-10-13T16:09:58.994Z,90.00
2022-10-13T16:12:25.389Z,90.60
2022-10-13T16:14:51.798Z,90.00
2022-10-13T16:17:18.200Z,90.00
2022-10-13T16:19:44.610Z,90.00
2022-10-13T16:22:11.023Z,90.00
2022-10-13T16:24:37.443Z,90.00
2022-10-13T16:27:03.839Z,90.00
2022-10-13T16:29:30.253Z,90.00
2022-10-13T16:31:56.656Z,90.00
2022-10-13T16:34:23.085Z,90.10
2022-10-13T16:36:49.503Z,90.00
2022-10-13T16:39:15.945Z,90.00
2022-10-13T16:41:42.367Z,90.10
2022-10-13T16:44:08.962Z,90.00
2022-10-13T16:46:37.793Z,90.00
2022-10-13T16:49:04.187Z,90.10
2022-10-13T16:51:30.601Z,90.00
2022-10-13T16:54:02.722Z,90.10
2022-10-13T16:56:30.444Z,90.20
2022-10-13T16:58:56.850Z,90.60
2022-10-13T17:01:23.273Z,90.90
2022-10-13T17:03:49.675Z,90.50
2022-10-13T17:06:16.112Z,90.10
2022-10-13T17:08:42.550Z,90.20
2022-10-13T17:11:08.986Z,90.10
2022-10-13T17:13:35.383Z,90.10
2022-10-13T17:16:01.804Z,90.90
2022-10-13T17:18:28.204Z,90.80
2022-10-13T17:20:54.613Z,90.10
2022-10-13T17:23:21.082Z,90.10
2022-10-13T17:25:47.483Z,90.10
2022-10-13T17:28:13.922Z,90.30
2022-10-13T17:30:40.374Z,90.70
2022-10-13T17:33:06.765Z,90.60
2022-10-13T17:35:33.160Z,90.20
2022-10-13T17:37:59.572Z,90.30
2022-10-13T17:40:25.983Z,90.10
2022-10-13T17:42:52.367Z,90.10
2022-10-13T17:45:18.786Z,90.10
2022-10-13T17:47:45.222Z,90.10
2022-10-13T17:50:11.698Z,90.20
2022-10-13T17:52:38.114Z,90.10
2022-10-13T17:55:04.531Z,90.10
2022-10-13T17:57:30.939Z,90.10
2022-10-13T17:59:57.385Z,90.10
2022-10-13T18:02:23.849Z,90.10
2022-10-13T18:04:50.263Z,90.10
2022-10-13T18:07:16.658Z,90.10
2022-10-13T18:09:43.258Z,90.20
2022-10-13T18:12:09.956Z,90.10
2022-10-13T18:14:36.365Z,90.20
2022-10-13T18:17:02.772Z,90.70
2022-10-13T18:19:29.179Z,90.10
2022-10-13T18:21:55.581Z,90.10
2022-10-13T18:24:22.030Z,90.70
2022-10-13T18:26:48.444Z,90.80
2022-10-13T18:29:15.862Z,90.10
2022-10-13T18:31:42.250Z,90.50
2022-10-13T18:34:08.682Z,90.20
2022-10-13T18:36:35.076Z,90.30
2022-10-13T18:39:01.485Z,90.20
2022-10-13T18:41:27.886Z,90.10
2022-10-13T18:43:54.289Z,90.20
2022-10-13T18:46:20.743Z,90.30
2022-10-13T18:48:47.147Z,90.20
2022-10-13T18:51:13.599Z,90.20
2022-10-13T18:53:40.018Z,90.20
2022-10-13T18:56:06.464Z,90.20
2022-10-13T18:58:32.863Z,90.20
2022-10-13T19:00:59.383Z,90.20
2022-10-13T19:03:25.824Z,90.20
2022-10-13T19:05:52.232Z,90.20
2022-10-13T19:08:18.628Z,90.90
2022-10-13T19:10:45.023Z,90.20
2022-10-13T19:13:11.424Z,90.20
2022-10-13T19:15:37.848Z,90.20
2022-10-13T19:18:04.235Z,90.20
2022-10-13T19:20:30.726Z,90.20
2022-10-13T19:22:57.124Z,90.20
2022-10-13T19:25:23.525Z,90.80
2022-10-13T19:27:49.926Z,90.20
2022-10-13T19:30:16.336Z,90.30
2022-10-13T19:32:42.796Z,90.30
2022-10-13T19:35:09.229Z,90.30
2022-10-13T19:37:35.631Z,90.30
2022-10-13T19:40:02.061Z,90.30
2022-10-13T19:42:28.505Z,90.30
2022-10-13T19:44:54.951Z,90.20
2022-10-13T19:47:21.626Z,90.30
2022-10-13T19:49:48.520Z,90.30
2022-10-13T19:52:14.926Z,90.30
2022-10-13T19:54:41.534Z,90.20
2022-10-13T19:57:07.965Z,90.30
2022-10-13T19:59:34.367Z,90.30
2022-10-13T20:02:00.778Z,90.30
2022-10-13T20:04:27.194Z,90.30
2022-10-13T20:06:53.594Z,90.30
2022-10-13T20:09:19.988Z,90.30
2022-10-13T20:11:46.422Z,90.30
2022-10-13T20:14:12.845Z,90.30
2022-10-13T20:16:39.262Z,90.30
2022-10-13T20:19:05.690Z,90.30
2022-10-13T20:21:32.089Z,90.30
2022-10-13T20:23:58.491Z,90.30
2022-10-13T20:26:24.935Z,90.30
2022-10-13T20:28:51.422Z,90.80
2022-10-13T20:31:17.916Z,90.30
2022-10-13T20:33:44.328Z,90.30
2022-10-13T20:36:10.770Z,90.30
2022-10-13T20:38:37.180Z,90.30
2022-10-13T20:41:03.776Z,90.40
2022-10-13T20:43:30.155Z,90.80
2022-10-13T20:45:56.948Z,90.30
2022-10-13T20:48:23.532Z,90.30
2022-10-13T20:50:49.915Z,90.40
2022-10-13T20:53:16.369Z,90.40
2022-10-13T20:55:42.776Z,90.40
2022-10-13T20:58:09.166Z,90.90
2022-10-13T21:00:35.630Z,90.40
2022-10-13T21:03:02.409Z,90.40
2022-10-13T21:05:28.886Z,90.40
2022-10-13T21:07:55.297Z,90.40
2022-10-13T21:10:21.714Z,90.40
2022-10-13T21:12:48.135Z,90.40
2022-10-13T21:15:14.570Z,90.40
2022-10-13T21:17:42.540Z,90.40
2022-10-13T21:20:09.081Z,90.40
2022-10-13T21:22:35.508Z,90.40
2022-10-13T21:25:01.925Z,90.40
2022-10-13T21:27:28.330Z,90.40
2022-10-13T21:29:54.768Z,90.40
2022-10-13T21:32:21.180Z,90.40
2022-10-13T21:34:47.586Z,90.40
2022-10-13T21:37:14.004Z,90.40
2022-10-13T21:39:40.428Z,90.40
2022-10-13T21:42:06.907Z,90.40
2022-10-13T21:44:33.330Z,90.40
2022-10-13T21:46:59.752Z,90.40
2022-10-13T21:49:26.202Z,90.40
2022-10-13T21:51:52.634Z,90.40
2022-10-13T21:54:19.067Z,90.40
2022-10-13T21:56:45.471Z,90.40
2022-10-13T21:59:11.902Z,90.40
2022-10-13T22:01:38.324Z,90.40
2022-10-13T22:04:04.772Z,90.40
2022-10-13T22:06:31.202Z,90.40
2022-10-13T22:08:57.618Z,90.40
2022-10-13T22:11:24.050Z,90.40
2022-10-13T22:13:50.452Z,90.40
2022-10-13T22:16:16.884Z,90.40
2022-10-13T22:18:43.309Z,90.40
2022-10-13T22:21:09.740Z,90.40
2022-10-13T22:23:36.158Z,90.40
2022-10-13T22:26:02.588Z,90.40
2022-10-13T22:28:32.318Z,90.40
2022-10-13T22:31:01.348Z,90.40
2022-10-13T22:33:27.743Z,90.40
2022-10-13T22:35:54.457Z,90.40
2022-10-13T22:38:20.844Z,90.40
2022-10-13T22:40:47.261Z,90.40
2022-10-13T22:43:13.658Z,91.00
2022-10-13T22:45:40.067Z,90.40
2022-10-13T22:48:06.459Z,90.40
2022-10-13T22:50:32.935Z,90.40
2022-10-13T22:52:59.729Z,90.40
2022-10-13T22:55:26.127Z,90.40
2022-10-13T22:57:52.582Z,90.40
2022-10-13T23:00:18.990Z,90.40
2022-10-13T23:02:45.392Z,90.40
2022-10-13T23:05:11.821Z,90.40
2022-10-13T23:07:38.235Z,90.40
2022-10-13T23:10:04.662Z,90.40
2022-10-13T23:12:31.074Z,91.00
2022-10-13T23:14:57.662Z,90.40
2022-10-13T23:17:24.411Z,90.40
2022-10-13T23:19:50.913Z,90.40
2022-10-13T23:22:17.307Z,90.40
2022-10-13T23:24:43.704Z,90.60
2022-10-13T23:27:10.225Z,90.60
2022-10-13T23:29:36.638Z,90.50
2022-10-13T23:32:06.249Z,90.80
2022-10-13T23:34:35.945Z,90.80
2022-10-13T23:37:02.330Z,90.80
2022-10-13T23:39:28.729Z,90.40
2022-10-13T23:41:55.121Z,90.90
2022-10-13T23:44:21.514Z,90.50
2022-10-13T23:46:47.956Z,90.40
2022-10-13T23:49:14.352Z,90.40
2022-10-13T23:51:40.751Z,90.40
2022-10-13T23:54:07.140Z,90.40
2022-10-13T23:56:33.574Z,90.40
2022-10-13T23:58:59.979Z,90.40
